createdAt,value
2023-03-27T00:00:14.172Z,18.8
2023-03-27T00:01:58.391Z,18.7
2023-03-27T00:03:58.372Z,18.6
2023-03-27T00:05:58.298Z,18.6
2023-03-27T00:07:58.326Z,18.6
2023-03-27T00:09:58.342Z,18.6
2023-03-27T00:10:51.596Z,18.6
2023-03-27T00:12:16.616Z,18.5
2023-03-27T00:14:14.439Z,18.5
2023-03-27T00:15:58.374Z,18.4
2023-03-27T00:17:58.469Z,18.4
2023-03-27T00:19:58.323Z,18.4
2023-03-27T00:21:58.321Z,18.3
2023-03-27T00:23:58.268Z,18.3
2023-03-27T00:25:58.313Z,18.2
2023-03-27T00:27:58.317Z,18.1
2023-03-27T00:29:58.436Z,18.1
2023-03-27T00:31:58.259Z,18
2023-03-27T00:33:58.298Z,18
2023-03-27T00:35:58.307Z,18
2023-03-27T00:37:58.309Z,17.9
2023-03-27T00:40:09.408Z,18
2023-03-27T00:41:58.282Z,17.9
2023-03-27T00:43:58.336Z,17.9
2023-03-27T00:45:58.406Z,17.8
2023-03-27T00:47:58.312Z,17.8
2023-03-27T00:49:58.258Z,17.8
2023-03-27T00:51:58.291Z,17.7
2023-03-27T00:53:58.261Z,17.7
2023-03-27T00:55:58.275Z,17.6
2023-03-27T00:57:58.350Z,17.6
2023-03-27T00:59:58.269Z,17.6
2023-03-27T01:01:58.295Z,17.5
2023-03-27T01:03:58.353Z,17.5
2023-03-27T01:05:59.384Z,17.4
2023-03-27T01:08:00.201Z,17.4
2023-03-27T01:09:59.309Z,17.4
2023-03-27T01:11:58.236Z,17.3
2023-03-27T01:13:58.230Z,17.3
2023-03-27T01:15:58.223Z,17.2
2023-03-27T01:17:58.236Z,17.2
2023-03-27T01:19:58.225Z,17.2
2023-03-27T01:21:58.262Z,17.2
2023-03-27T01:24:00.364Z,17.1
2023-03-27T01:25:58.223Z,17.1
2023-03-27T01:27:58.209Z,17
2023-03-27T01:29:58.226Z,17
2023-03-27T01:31:58.153Z,17
2023-03-27T01:33:58.215Z,16.9
2023-03-27T01:35:58.236Z,16.8
2023-03-27T01:37:58.206Z,16.8
2023-03-27T01:39:21.017Z,16.8
2023-03-27T01:41:32.716Z,16.8
2023-03-27T01:43:50.157Z,16.7
2023-03-27T01:45:50.323Z,16.7
2023-03-27T01:45:58.138Z,16.6
2023-03-27T01:47:58.231Z,16.6
2023-03-27T01:49:58.189Z,16.6
2023-03-27T01:51:58.196Z,16.5
2023-03-27T01:53:58.218Z,16.5
2023-03-27T01:55:58.224Z,16.5
2023-03-27T01:57:58.156Z,16.4
2023-03-27T01:59:58.196Z,16.4
2023-03-27T02:01:58.178Z,16.3
2023-03-27T02:03:15.506Z,16.3
2023-03-27T02:03:58.166Z,16.3
2023-03-27T02:05:19.485Z,16.3
2023-03-27T02:06:33.711Z,16.2
2023-03-27T02:07:46.581Z,16.2
2023-03-27T02:09:58.146Z,16.2
2023-03-27T02:11:58.216Z,16.2
2023-03-27T02:13:58.147Z,16.1
2023-03-27T02:15:58.172Z,16.1
2023-03-27T02:17:58.221Z,16.1
2023-03-27T02:19:58.121Z,16.1
2023-03-27T02:21:58.129Z,16
2023-03-27T02:23:58.155Z,16
2023-03-27T02:25:58.150Z,15.9
2023-03-27T02:27:58.133Z,15.9
2023-03-27T02:29:58.140Z,16
2023-03-27T02:31:58.149Z,15.8
2023-03-27T02:33:58.144Z,15.8
2023-03-27T02:35:58.132Z,15.8
2023-03-27T02:37:58.156Z,15.8
2023-03-27T02:39:31.036Z,15.8
2023-03-27T02:41:58.105Z,15.8
2023-03-27T02:43:58.157Z,15.7
2023-03-27T02:45:58.120Z,15.7
2023-03-27T02:46:39.566Z,15.7
2023-03-27T02:47:58.142Z,15.7
2023-03-27T02:49:03.767Z,15.7
2023-03-27T02:51:58.195Z,15.7
2023-03-27T02:53:58.092Z,15.7
2023-03-27T02:55:35.167Z,15.7
2023-03-27T02:55:58.107Z,15.6
2023-03-27T02:57:58.120Z,15.6
2023-03-27T02:59:58.154Z,15.7
2023-03-27T03:01:58.202Z,15.7
2023-03-27T03:03:58.104Z,15.6
2023-03-27T03:05:58.126Z,15.6
2023-03-27T03:07:58.158Z,15.6
2023-03-27T03:09:58.085Z,15.6
2023-03-27T03:11:58.156Z,15.6
2023-03-27T03:13:58.162Z,15.5
2023-03-27T03:15:58.185Z,15.5
2023-03-27T03:17:58.098Z,15.5
2023-03-27T03:19:58.160Z,15.5
2023-03-27T03:21:49.973Z,15.5
2023-03-27T03:21:58.046Z,15.5
2023-03-27T03:23:59.233Z,15.4
2023-03-27T03:25:00.735Z,15.4
2023-03-27T03:27:58.155Z,15.4
2023-03-27T03:29:58.143Z,15.5
2023-03-27T03:31:58.092Z,15.4
2023-03-27T03:33:58.097Z,15.4
2023-03-27T03:36:33.448Z,15.3
2023-03-27T03:37:50.931Z,15.3
2023-03-27T03:37:58.082Z,15.3
2023-03-27T03:40:12.390Z,15.4
2023-03-27T03:41:57.419Z,15.4
2023-03-27T03:43:58.063Z,15.3
2023-03-27T03:46:12.375Z,15.2
2023-03-27T03:47:58.096Z,15.2
2023-03-27T03:49:58.151Z,15.3
2023-03-27T03:52:03.335Z,15.3
2023-03-27T03:53:58.094Z,15.3
2023-03-27T03:55:58.107Z,15.2
2023-03-27T03:57:58.113Z,15.2
2023-03-27T03:59:58.176Z,15.3
2023-03-27T04:01:58.164Z,15.2
2023-03-27T04:03:58.058Z,15.2
2023-03-27T04:05:58.062Z,15.2
2023-03-27T04:07:58.126Z,15.2
2023-03-27T04:09:58.059Z,15.3
2023-03-27T04:11:58.088Z,15.2
2023-03-27T04:13:58.062Z,15.2
2023-03-27T04:15:17.660Z,15.2
2023-03-27T04:15:58.087Z,15.2
2023-03-27T04:17:58.112Z,15.1
2023-03-27T04:19:43.528Z,15.1
2023-03-27T04:21:28.744Z,15.2
2023-03-27T04:23:58.069Z,15.1
2023-03-27T04:25:58.053Z,15.1
2023-03-27T04:26:47.630Z,15.1
2023-03-27T04:27:58.011Z,15
2023-03-27T04:29:58.014Z,15.1
2023-03-27T04:31:58.142Z,15
2023-03-27T04:33:58.029Z,15
2023-03-27T04:36:05.919Z,14.9
2023-03-27T04:38:20.707Z,14.9
2023-03-27T04:39:58.151Z,15
2023-03-27T04:41:58.028Z,15
2023-03-27T04:43:58.013Z,14.9
2023-03-27T04:45:58.090Z,15
2023-03-27T04:47:58.017Z,15
2023-03-27T04:49:58.028Z,15
2023-03-27T04:51:58.027Z,15
2023-03-27T04:53:58.068Z,15
2023-03-27T04:55:58.074Z,14.9
2023-03-27T04:57:57.999Z,14.9
2023-03-27T04:59:58.041Z,15
2023-03-27T05:01:58.029Z,14.9
2023-03-27T05:03:58.083Z,14.9
2023-03-27T05:05:58.017Z,14.9
2023-03-27T05:07:58.018Z,14.9
2023-03-27T05:09:58.003Z,15
2023-03-27T05:11:57.970Z,14.9
2023-03-27T05:13:58.029Z,14.9
2023-03-27T05:15:58.087Z,14.9
2023-03-27T05:17:58.135Z,14.9
2023-03-27T05:19:58.014Z,15
2023-03-27T05:21:58.006Z,15
2023-03-27T05:23:57.996Z,15
2023-03-27T05:25:59.230Z,15
2023-03-27T05:27:58.028Z,15
2023-03-27T05:29:57.963Z,15
2023-03-27T05:31:03.453Z,15
2023-03-27T05:31:59.525Z,15
2023-03-27T05:33:31.056Z,15
2023-03-27T05:33:58.012Z,14.9
2023-03-27T05:35:59.510Z,14.9
2023-03-27T05:37:57.921Z,14.9
2023-03-27T05:39:57.930Z,14.9
2023-03-27T05:41:57.987Z,14.9
2023-03-27T05:43:57.993Z,14.9
2023-03-27T05:45:57.988Z,14.9
2023-03-27T05:47:57.940Z,14.9
2023-03-27T05:49:58.023Z,15
2023-03-27T05:51:57.940Z,15
2023-03-27T05:53:57.930Z,14.9
2023-03-27T05:56:02.585Z,14.9
2023-03-27T05:57:57.999Z,14.9
2023-03-27T05:59:14.604Z,14.9
2023-03-27T06:00:28.647Z,15
2023-03-27T06:01:57.951Z,15
2023-03-27T06:03:57.963Z,15
2023-03-27T06:05:57.918Z,15.1
2023-03-27T06:07:57.934Z,15
2023-03-27T06:09:57.933Z,15.1
2023-03-27T06:11:57.939Z,15.1
2023-03-27T06:13:58.657Z,15.1
2023-03-27T06:15:57.958Z,15.1
2023-03-27T06:17:57.946Z,15.1
2023-03-27T06:19:57.907Z,15.2
2023-03-27T06:21:18.097Z,15.2
2023-03-27T06:22:20.528Z,15.1
2023-03-27T06:23:57.864Z,15.1
2023-03-27T06:25:36.961Z,15.1
2023-03-27T06:27:57.993Z,15.1
2023-03-27T06:29:57.894Z,15.2
2023-03-27T06:31:57.949Z,15.1
2023-03-27T06:33:57.987Z,15.1
2023-03-27T06:35:58.033Z,15.1
2023-03-27T06:37:10.312Z,15.1
2023-03-27T06:37:57.844Z,15.1
2023-03-27T06:39:57.962Z,15.2
2023-03-27T06:41:57.869Z,15.2
2023-03-27T06:43:57.875Z,15.2
2023-03-27T06:45:58.097Z,15.2
2023-03-27T06:48:00.193Z,15.2
2023-03-27T06:49:57.844Z,15.3
2023-03-27T06:51:57.917Z,15.4
2023-03-27T06:53:57.945Z,15.4
2023-03-27T06:55:58.184Z,15.4
2023-03-27T06:56:43.456Z,15.4
2023-03-27T06:58:28.246Z,15.4
2023-03-27T06:59:41.659Z,15.4
2023-03-27T07:00:02.404Z,15.5
2023-03-27T07:01:57.922Z,15.5
2023-03-27T07:03:57.882Z,15.5
2023-03-27T07:05:58.153Z,15.6
2023-03-27T07:07:58.302Z,15.6
2023-03-27T07:09:57.976Z,15.7
2023-03-27T07:11:57.845Z,15.7
2023-03-27T07:13:57.867Z,15.7
2023-03-27T07:15:04.448Z,15.7
2023-03-27T07:15:57.889Z,15.7
2023-03-27T07:17:58.050Z,15.7
2023-03-27T07:19:57.893Z,15.8
2023-03-27T07:22:37.276Z,15.8
2023-03-27T07:23:57.973Z,15.9
2023-03-27T07:25:58.049Z,15.8
2023-03-27T07:27:57.880Z,15.8
2023-03-27T07:29:57.851Z,15.8
2023-03-27T07:31:59.692Z,15.8
2023-03-27T07:32:42.657Z,15.8
2023-03-27T07:33:58.010Z,15.8
2023-03-27T07:36:35.186Z,15.8
2023-03-27T07:37:57.844Z,15.9
2023-03-27T07:40:26.544Z,16
2023-03-27T07:41:57.823Z,16
2023-03-27T07:43:57.758Z,16
2023-03-27T07:45:58.026Z,16
2023-03-27T07:47:57.799Z,16
2023-03-27T07:49:57.752Z,16.2
2023-03-27T07:51:57.789Z,16.1
2023-03-27T07:53:57.801Z,16.2
2023-03-27T07:55:57.910Z,16.2
2023-03-27T07:58:02.157Z,16.2
2023-03-27T07:59:57.746Z,16.4
2023-03-27T08:01:57.762Z,16.3
2023-03-27T08:03:57.938Z,16.3
2023-03-27T08:05:58.217Z,16.3
2023-03-27T08:07:57.796Z,16.3
2023-03-27T08:09:57.777Z,16.4
2023-03-27T08:11:57.767Z,16.4
2023-03-27T08:13:57.724Z,16.4
2023-03-27T08:15:57.925Z,16.4
2023-03-27T08:17:57.764Z,16.4
2023-03-27T08:19:57.867Z,16.5
2023-03-27T08:21:57.790Z,16.5
2023-03-27T08:23:57.938Z,16.5
2023-03-27T08:25:57.928Z,16.5
2023-03-27T08:27:57.777Z,16.5
2023-03-27T08:29:57.761Z,16.7
2023-03-27T08:31:57.730Z,16.6
2023-03-27T08:33:26.094Z,16.6
2023-03-27T08:33:57.696Z,16.7
2023-03-27T08:35:57.981Z,16.7
2023-03-27T08:37:57.727Z,16.7
2023-03-27T08:39:57.716Z,16.8
2023-03-27T08:41:57.718Z,16.7
2023-03-27T08:43:02.356Z,16.7
2023-03-27T08:44:21.438Z,16.7
2023-03-27T08:45:57.860Z,16.8
2023-03-27T08:47:57.736Z,16.8
2023-03-27T08:49:57.783Z,16.9
2023-03-27T08:51:40.853Z,16.9
2023-03-27T08:53:57.846Z,16.8
2023-03-27T08:55:58.106Z,16.8
2023-03-27T08:57:57.737Z,16.8
2023-03-27T08:59:57.758Z,16.9
2023-03-27T09:01:57.830Z,16.9
2023-03-27T09:03:57.900Z,16.9
2023-03-27T09:05:57.938Z,17
2023-03-27T09:07:57.712Z,17
2023-03-27T09:09:04.057Z,17
2023-03-27T09:11:57.734Z,17.1
2023-03-27T09:13:55.690Z,17.1
2023-03-27T09:13:57.623Z,17
2023-03-27T09:15:54.254Z,17
2023-03-27T09:17:57.753Z,17.1
2023-03-27T09:19:57.678Z,17.2
2023-03-27T09:21:57.695Z,17.1
2023-03-27T09:23:57.729Z,17.1
2023-03-27T09:25:57.804Z,17.1
2023-03-27T09:27:57.700Z,17.1
2023-03-27T09:30:05.164Z,17.2
2023-03-27T09:31:57.723Z,17.2
2023-03-27T09:33:57.723Z,17.2
2023-03-27T09:35:57.891Z,17.2
2023-03-27T09:37:42.281Z,17.2
2023-03-27T09:37:57.678Z,17.1
2023-03-27T09:39:57.669Z,17.2
2023-03-27T09:41:22.209Z,17.2
2023-03-27T09:41:57.682Z,17.2
2023-03-27T09:42:45.193Z,17.2
2023-03-27T09:43:57.764Z,17.1
2023-03-27T09:46:15.502Z,17.1
2023-03-27T09:47:57.775Z,17.1
2023-03-27T09:49:57.641Z,17.2
2023-03-27T09:51:57.709Z,17.1
2023-03-27T09:53:57.783Z,17.1
2023-03-27T09:55:57.640Z,17
2023-03-27T09:57:57.699Z,17
2023-03-27T09:59:57.705Z,17.1
2023-03-27T10:01:57.660Z,17.1
2023-03-27T10:03:57.726Z,17
2023-03-27T10:05:57.704Z,17
2023-03-27T10:07:57.639Z,17
2023-03-27T10:09:57.643Z,17.1
2023-03-27T10:11:38.743Z,17.1
2023-03-27T10:13:28.810Z,17
2023-03-27T10:16:27.153Z,17
2023-03-27T10:17:57.670Z,17.1
2023-03-27T10:19:48.916Z,17.1
2023-03-27T10:19:57.578Z,17.1
2023-03-27T10:21:57.604Z,17.1
2023-03-27T10:23:56.513Z,17.1
2023-03-27T10:25:57.583Z,17.1
2023-03-27T10:27:57.545Z,17.1
2023-03-27T10:29:57.578Z,17.2
2023-03-27T10:31:58.825Z,17.1
2023-03-27T10:33:57.543Z,17
2023-03-27T10:35:57.624Z,17
2023-03-27T10:37:57.537Z,17
2023-03-27T10:39:58.866Z,17.1
2023-03-27T10:41:57.576Z,17.1
2023-03-27T10:43:57.560Z,17
2023-03-27T10:45:57.551Z,17
2023-03-27T10:47:57.597Z,17
2023-03-27T10:49:49.799Z,17
2023-03-27T10:49:57.493Z,17.1
2023-03-27T10:51:12.531Z,17.1
2023-03-27T10:53:57.665Z,17.1
2023-03-27T10:55:06.017Z,17.1
2023-03-27T10:57:57.575Z,17.1
2023-03-27T10:59:57.539Z,17.2
2023-03-27T11:02:53.680Z,17.2
2023-03-27T11:04:09.511Z,17.2
2023-03-27T11:05:57.500Z,17.2
2023-03-27T11:07:57.502Z,17.2
2023-03-27T11:09:57.525Z,17.2
2023-03-27T11:11:57.546Z,17.2
2023-03-27T11:13:57.522Z,17.2
2023-03-27T11:15:57.530Z,17.3
2023-03-27T11:17:57.557Z,17.2
2023-03-27T11:19:57.482Z,17.3
2023-03-27T11:21:57.488Z,17.4
2023-03-27T11:23:57.524Z,17.4
2023-03-27T11:25:57.473Z,17.3
2023-03-27T11:28:39.613Z,17.3
2023-03-27T11:29:57.525Z,17.3
2023-03-27T11:31:57.497Z,17.3
2023-03-27T11:33:57.493Z,17.3
2023-03-27T11:35:57.512Z,17.3
2023-03-27T11:37:57.474Z,17.3
2023-03-27T11:39:57.506Z,17.3
2023-03-27T11:41:57.483Z,17.3
2023-03-27T11:43:18.699Z,17.3
2023-03-27T11:43:57.481Z,17.4
2023-03-27T11:45:57.488Z,17.3
2023-03-27T11:47:57.625Z,17.3
2023-03-27T11:49:57.626Z,17.3
2023-03-27T11:51:57.554Z,17.3
2023-03-27T11:53:57.453Z,17.4
2023-03-27T11:55:57.453Z,17.4
2023-03-27T11:57:57.469Z,17.4
2023-03-27T11:59:57.540Z,17.4
2023-03-27T12:01:57.483Z,17.5
2023-03-27T12:03:57.526Z,17.4
2023-03-27T12:06:22.898Z,17.5
2023-03-27T12:07:57.469Z,17.4
2023-03-27T12:10:10.178Z,17.5
2023-03-27T12:11:57.430Z,17.5
2023-03-27T12:14:01.482Z,17.4
2023-03-27T12:15:57.445Z,17.4
2023-03-27T12:17:57.530Z,17.3
2023-03-27T12:19:57.495Z,17.3
2023-03-27T12:21:57.536Z,17.4
2023-03-27T12:23:57.474Z,17.2
2023-03-27T12:25:57.474Z,17.1
2023-03-27T12:27:57.470Z,17
2023-03-27T12:29:57.431Z,17.1
2023-03-27T12:31:57.499Z,17.1
2023-03-27T12:33:57.456Z,17.1
2023-03-27T12:35:57.538Z,17
2023-03-27T12:38:30.377Z,17
2023-03-27T12:39:37.004Z,17
2023-03-27T12:39:57.430Z,17
2023-03-27T12:41:22.547Z,17
2023-03-27T12:42:24.702Z,17
2023-03-27T12:43:57.468Z,17
2023-03-27T12:45:57.428Z,17
2023-03-27T12:47:57.446Z,17
2023-03-27T12:49:57.414Z,16.9
2023-03-27T12:51:57.414Z,17.1
2023-03-27T12:53:57.457Z,17
2023-03-27T12:55:14.996Z,17
2023-03-27T12:55:57.541Z,17
2023-03-27T12:57:57.542Z,16.9
2023-03-27T12:59:57.387Z,16.9
2023-03-27T13:01:57.426Z,17
2023-03-27T13:03:57.422Z,16.9
2023-03-27T13:05:57.454Z,16.9
2023-03-27T13:07:57.446Z,16.8
2023-03-27T13:09:57.446Z,16.8
2023-03-27T13:11:57.389Z,16.9
2023-03-27T13:13:57.388Z,16.9
2023-03-27T13:15:57.669Z,16.9
2023-03-27T13:17:57.427Z,16.9
2023-03-27T13:19:57.498Z,17
2023-03-27T13:21:57.451Z,17
2023-03-27T13:23:36.753Z,17
2023-03-27T13:23:57.458Z,17
2023-03-27T13:25:57.634Z,17.1
2023-03-27T13:27:57.383Z,17.1
2023-03-27T13:29:57.440Z,17.1
2023-03-27T13:31:57.428Z,17.1
2023-03-27T13:33:57.443Z,17.1
2023-03-27T13:35:57.541Z,17.1
2023-03-27T13:37:57.421Z,17.1
2023-03-27T13:39:57.487Z,17.2
2023-03-27T13:41:58.202Z,17.4
2023-03-27T13:43:57.468Z,17.5
2023-03-27T13:45:57.685Z,17.6
2023-03-27T13:47:57.470Z,17.6
2023-03-27T13:49:57.390Z,17.8
2023-03-27T13:51:57.428Z,17.9
2023-03-27T13:53:57.465Z,18
2023-03-27T13:55:57.563Z,18.1
2023-03-27T13:57:09.700Z,18.1
2023-03-27T13:59:57.480Z,18.3
2023-03-27T14:01:57.456Z,18.5
2023-03-27T14:03:57.474Z,18.7
2023-03-27T14:05:57.450Z,18.8
2023-03-27T14:07:57.376Z,18.9
2023-03-27T14:09:57.326Z,19
2023-03-27T14:11:57.385Z,19.2
2023-03-27T14:13:57.325Z,19.2
2023-03-27T14:15:12.843Z,19.2
2023-03-27T14:15:57.447Z,19.5
2023-03-27T14:17:57.468Z,19.4
2023-03-27T14:19:57.315Z,19.5
2023-03-27T14:21:57.313Z,19.9
2023-03-27T14:23:57.347Z,20.2
2023-03-27T14:25:17.167Z,20.2
2023-03-27T14:25:57.451Z,20.3
2023-03-27T14:27:57.291Z,20.4
2023-03-27T14:29:57.349Z,20.5
2023-03-27T14:31:57.388Z,20.9
2023-03-27T14:33:57.340Z,21
2023-03-27T14:36:34.577Z,20.9
2023-03-27T14:37:59.723Z,20.9
2023-03-27T14:39:57.423Z,21
2023-03-27T14:42:07.842Z,21.3
2023-03-27T14:43:57.350Z,21.2
2023-03-27T14:45:57.587Z,21.2
2023-03-27T14:47:57.359Z,21.3
2023-03-27T14:49:57.363Z,21.3
2023-03-27T14:51:57.354Z,21.5
2023-03-27T14:54:01.585Z,21.4
2023-03-27T14:55:57.535Z,21.5
2023-03-27T14:57:57.363Z,21.5
2023-03-27T14:59:57.344Z,21.4
2023-03-27T15:01:42.425Z,21.4
2023-03-27T15:01:57.322Z,21.5
2023-03-27T15:03:57.371Z,21.7
2023-03-27T15:05:57.647Z,21.6
2023-03-27T15:07:57.404Z,21.5
2023-03-27T15:09:57.349Z,21.8
2023-03-27T15:11:57.351Z,21.7
2023-03-27T15:13:57.388Z,21.5
2023-03-27T15:16:21.111Z,21.6
2023-03-27T15:18:34.248Z,21.6
2023-03-27T15:19:57.299Z,21.6
2023-03-27T15:21:59.756Z,21.8
2023-03-27T15:23:57.398Z,21.6
2023-03-27T15:25:57.433Z,21.6
2023-03-27T15:27:50.928Z,21.6
2023-03-27T15:30:20.063Z,21.5
2023-03-27T15:32:07.653Z,21.7
2023-03-27T15:33:57.328Z,21.6
2023-03-27T15:36:17.401Z,21.6
2023-03-27T15:37:57.331Z,21.4
2023-03-27T15:39:57.347Z,21.4
2023-03-27T15:41:57.328Z,21.4
2023-03-27T15:44:19.740Z,21.3
2023-03-27T15:45:57.503Z,21.2
2023-03-27T15:47:57.322Z,21.3
2023-03-27T15:49:57.284Z,21.5
2023-03-27T15:51:57.295Z,21.8
2023-03-27T15:53:57.265Z,21.7
2023-03-27T15:55:57.537Z,21.8
2023-03-27T15:57:57.259Z,21.8
2023-03-27T15:59:57.345Z,21.8
2023-03-27T16:01:57.303Z,21.9
2023-03-27T16:03:58.573Z,21.8
2023-03-27T16:05:57.413Z,21.7
2023-03-27T16:07:57.311Z,21.9
2023-03-27T16:08:38.911Z,21.9
2023-03-27T16:09:57.378Z,22
2023-03-27T16:12:03.175Z,22.1
2023-03-27T16:14:20.271Z,22.1
2023-03-27T16:15:56.296Z,22.1
2023-03-27T16:17:57.241Z,22
2023-03-27T16:19:57.246Z,22
2023-03-27T16:21:57.412Z,22.1
2023-03-27T16:23:57.221Z,22.1
2023-03-27T16:25:57.361Z,21.9
2023-03-27T16:27:57.300Z,21.9
2023-03-27T16:30:20.141Z,21.9
2023-03-27T16:32:14.339Z,22.1
2023-03-27T16:33:57.273Z,21.9
2023-03-27T16:35:57.493Z,22
2023-03-27T16:37:57.303Z,21.9
2023-03-27T16:39:57.260Z,21.8
2023-03-27T16:41:57.262Z,21.7
2023-03-27T16:43:57.199Z,21.8
2023-03-27T16:45:57.400Z,21.9
2023-03-27T16:47:57.256Z,21.9
2023-03-27T16:50:10.680Z,22
2023-03-27T16:51:57.229Z,22.2
2023-03-27T16:53:57.319Z,22.2
2023-03-27T16:55:57.455Z,22.2
2023-03-27T16:57:57.296Z,22.5
2023-03-27T16:58:28.824Z,22.5
2023-03-27T16:59:57.307Z,22.6
2023-03-27T17:01:57.244Z,22.7
2023-03-27T17:03:57.265Z,22.7
2023-03-27T17:05:57.433Z,22.9
2023-03-27T17:07:57.190Z,22.9
2023-03-27T17:10:37.864Z,23
2023-03-27T17:11:57.217Z,23.3
2023-03-27T17:13:57.242Z,23.2
2023-03-27T17:15:57.541Z,23.1
2023-03-27T17:17:57.250Z,23.1
2023-03-27T17:19:57.241Z,23.2
2023-03-27T17:21:57.183Z,23.4
2023-03-27T17:23:57.141Z,23.5
2023-03-27T17:25:57.339Z,23.5
2023-03-27T17:27:57.278Z,23.6
2023-03-27T17:29:57.180Z,23.7
2023-03-27T17:31:57.218Z,23.8
2023-03-27T17:33:57.228Z,23.8
2023-03-27T17:35:57.562Z,24.1
2023-03-27T17:37:57.206Z,24.3
2023-03-27T17:39:57.182Z,24.3
2023-03-27T17:41:57.172Z,24.5
2023-03-27T17:43:57.282Z,24.6
2023-03-27T17:45:57.389Z,24.6
2023-03-27T17:47:57.161Z,24.7
2023-03-27T17:49:57.143Z,24.4
2023-03-27T17:51:57.202Z,24.7
2023-03-27T17:53:57.241Z,24.6
2023-03-27T17:55:57.395Z,24.5
2023-03-27T17:58:08.121Z,24.6
2023-03-27T17:59:57.173Z,24.7
2023-03-27T18:01:27.851Z,24.7
2023-03-27T18:03:40.930Z,24.9
2023-03-27T18:03:57.205Z,24.9
2023-03-27T18:04:46.805Z,24.9
2023-03-27T18:05:57.305Z,25.1
2023-03-27T18:07:57.146Z,25.2
2023-03-27T18:09:57.171Z,25.3
2023-03-27T18:11:57.118Z,25.8
2023-03-27T18:13:57.123Z,25.8
2023-03-27T18:15:57.480Z,26
2023-03-27T18:17:32.337Z,26
2023-03-27T18:17:57.130Z,26.1
2023-03-27T18:20:22.334Z,26.2
2023-03-27T18:21:57.091Z,26.2
2023-03-27T18:23:57.111Z,26.1
2023-03-27T18:25:57.264Z,26.1
2023-03-27T18:27:57.212Z,26.1
2023-03-27T18:30:43.223Z,26.2
2023-03-27T18:31:57.121Z,26.2
2023-03-27T18:33:57.163Z,26.3
2023-03-27T18:35:57.295Z,26.5
2023-03-27T18:37:57.157Z,26.6
2023-03-27T18:39:57.117Z,26.6
2023-03-27T18:41:46.965Z,26.6
2023-03-27T18:41:57.017Z,27
2023-03-27T18:43:05.994Z,27
2023-03-27T18:43:57.076Z,26.9
2023-03-27T18:45:57.399Z,27.1
2023-03-27T18:47:57.127Z,27.3
2023-03-27T18:49:50.325Z,27.3
2023-03-27T18:49:57.049Z,27.1
2023-03-27T18:51:25.004Z,27.1
2023-03-27T18:53:57.114Z,27
2023-03-27T18:55:57.305Z,27
2023-03-27T18:57:56.971Z,27
2023-03-27T18:59:57.016Z,27.2
2023-03-27T19:01:57.114Z,27.4
2023-03-27T19:03:57.183Z,27.2
2023-03-27T19:05:57.206Z,27.3
2023-03-27T19:07:57.072Z,27.5
2023-03-27T19:09:57.093Z,27.6
2023-03-27T19:11:57.065Z,28
2023-03-27T19:14:04.164Z,27.9
2023-03-27T19:15:57.093Z,27.9
2023-03-27T19:17:57.102Z,27.7
2023-03-27T19:19:57.084Z,27.5
2023-03-27T19:21:57.111Z,27.9
2023-03-27T19:23:57.060Z,27.7
2023-03-27T19:25:57.098Z,27.6
2023-03-27T19:27:45.299Z,27.6
2023-03-27T19:29:57.101Z,27.7
2023-03-27T19:31:57.112Z,27.8
2023-03-27T19:33:56.955Z,27.8
2023-03-27T19:35:57.100Z,27.8
2023-03-27T19:37:57.182Z,28
2023-03-27T19:39:57.062Z,27.9
2023-03-27T19:41:57.041Z,28.2
2023-03-27T19:43:58.957Z,28
2023-03-27T19:46:04.714Z,28.1
2023-03-27T19:47:03.556Z,28.1
2023-03-27T19:47:57.034Z,28.2
2023-03-27T19:49:57.021Z,28.1
2023-03-27T19:51:57.086Z,28.2
2023-03-27T19:53:57.027Z,28.1
2023-03-27T19:55:56.989Z,28.2
2023-03-27T19:57:57.015Z,28.2
2023-03-27T20:00:01.228Z,28.4
2023-03-27T20:01:57.148Z,28.5
2023-03-27T20:03:57.209Z,28.1
2023-03-27T20:06:06.332Z,27.8
2023-03-27T20:07:57.019Z,27.8
2023-03-27T20:09:56.984Z,27.9
2023-03-27T20:11:57.047Z,28.1
2023-03-27T20:13:57.308Z,27.7
2023-03-27T20:15:57.208Z,27.7
2023-03-27T20:17:57.051Z,27.7
2023-03-27T20:19:56.997Z,27.6
2023-03-27T20:22:22.709Z,27.6
2023-03-27T20:23:57.063Z,27.7
2023-03-27T20:25:57.118Z,27.7
2023-03-27T20:27:57.093Z,27.6
2023-03-27T20:30:06.226Z,27.9
2023-03-27T20:31:57.026Z,27.8
2023-03-27T20:33:56.999Z,27.5
2023-03-27T20:35:57.052Z,27.4
2023-03-27T20:37:57.011Z,27.4
2023-03-27T20:39:56.984Z,27.4
2023-03-27T20:41:36.137Z,27.4
2023-03-27T20:43:56.967Z,27.3
2023-03-27T20:46:10.764Z,27.5
2023-03-27T20:47:57.096Z,27.3
2023-03-27T20:49:56.950Z,27.2
2023-03-27T20:51:57.059Z,27.3
2023-03-27T20:53:56.944Z,27.4
2023-03-27T20:55:26.756Z,27.4
2023-03-27T20:56:40.903Z,27.6
2023-03-27T20:57:56.942Z,27.7
2023-03-27T20:59:56.987Z,27.7
2023-03-27T21:01:56.917Z,27.5
2023-03-27T21:03:56.900Z,27.4
2023-03-27T21:05:57.063Z,27.6
2023-03-27T21:07:41.181Z,27.6
2023-03-27T21:07:56.964Z,27.5
2023-03-27T21:09:56.964Z,27.3
2023-03-27T21:11:56.945Z,27.3
2023-03-27T21:13:57.032Z,27.2
2023-03-27T21:15:57.021Z,27.1
2023-03-27T21:17:56.989Z,27.1
2023-03-27T21:19:56.964Z,26.8
2023-03-27T21:21:56.935Z,26.9
2023-03-27T21:23:59.442Z,27
2023-03-27T21:25:56.947Z,27.2
2023-03-27T21:27:20.362Z,27.2
2023-03-27T21:28:34.052Z,27
2023-03-27T21:29:56.978Z,26.8
2023-03-27T21:31:56.956Z,26.8
2023-03-27T21:33:56.856Z,26.7
2023-03-27T21:35:57.192Z,26.9
2023-03-27T21:37:56.860Z,26.8
2023-03-27T21:39:56.921Z,26.7
2023-03-27T21:41:56.855Z,26.8
2023-03-27T21:43:56.870Z,26.7
2023-03-27T21:45:11.868Z,26.7
2023-03-27T21:47:56.881Z,26.4
2023-03-27T21:49:56.921Z,26.4
2023-03-27T21:51:22.252Z,26.4
2023-03-27T21:51:56.844Z,26.4
2023-03-27T21:53:56.919Z,26.3
2023-03-27T21:55:56.957Z,26.5
2023-03-27T21:57:56.851Z,26.5
2023-03-27T21:59:56.828Z,26.5
2023-03-27T22:01:57.019Z,26.4
2023-03-27T22:03:56.850Z,26.3
2023-03-27T22:06:08.345Z,26.2
2023-03-27T22:07:56.828Z,26.1
2023-03-27T22:09:56.893Z,26.3
2023-03-27T22:11:56.882Z,26.3
2023-03-27T22:13:56.897Z,26.1
2023-03-27T22:15:57.072Z,26.2
2023-03-27T22:17:56.976Z,26.1
2023-03-27T22:19:56.926Z,26.1
2023-03-27T22:21:56.852Z,26
2023-03-27T22:23:56.905Z,26.1
2023-03-27T22:25:57.014Z,26.1
2023-03-27T22:27:56.769Z,26
2023-03-27T22:29:56.808Z,25.8
2023-03-27T22:31:56.817Z,25.9
2023-03-27T22:33:56.826Z,25.8
2023-03-27T22:35:57.001Z,25.8
2023-03-27T22:37:56.809Z,25.9
2023-03-27T22:39:56.823Z,25.8
2023-03-27T22:41:56.876Z,25.8
2023-03-27T22:43:56.763Z,25.8
2023-03-27T22:45:56.955Z,25.7
2023-03-27T22:47:56.839Z,25.6
2023-03-27T22:49:56.782Z,25.6
2023-03-27T22:51:56.754Z,25.6
2023-03-27T22:53:53.817Z,25.6
2023-03-27T22:53:56.755Z,25.5
2023-03-27T22:54:53.793Z,25.5
2023-03-27T22:55:57.044Z,25.5
2023-03-27T22:57:22.971Z,25.5
2023-03-27T22:59:56.775Z,25.3
2023-03-27T23:01:56.839Z,25.3
2023-03-27T23:03:56.886Z,25.3
2023-03-27T23:05:57.110Z,25.1
2023-03-27T23:07:56.757Z,25.1
2023-03-27T23:09:56.763Z,25.1
2023-03-27T23:11:56.747Z,25
2023-03-27T23:13:56.833Z,25
2023-03-27T23:15:56.932Z,24.9
2023-03-27T23:17:56.836Z,24.8
2023-03-27T23:19:56.734Z,24.8
2023-03-27T23:21:56.743Z,24.7
2023-03-27T23:23:41.490Z,24.7
2023-03-27T23:23:56.705Z,24.7
2023-03-27T23:25:56.810Z,24.7
2023-03-27T23:27:56.817Z,24.6
2023-03-27T23:29:56.743Z,24.6
2023-03-27T23:31:56.737Z,24.5
2023-03-27T23:33:56.707Z,24.4
2023-03-27T23:35:56.798Z,24.4
2023-03-27T23:37:56.718Z,24.3
2023-03-27T23:39:56.711Z,24.3
2023-03-27T23:41:56.751Z,24.3
2023-03-27T23:43:56.729Z,24.3
2023-03-27T23:45:56.767Z,24.3
2023-03-27T23:46:40.057Z,24.3
2023-03-27T23:47:56.851Z,24.3
2023-03-27T23:49:56.720Z,24.2
2023-03-27T23:51:56.698Z,24.1
2023-03-27T23:53:56.785Z,24.1
2023-03-27T23:55:56.715Z,24
2023-03-27T23:57:56.819Z,23.9
2023-03-27T23:59:56.717Z,24
